Time;durP1;ratioP1;P1;durP2;ratioP2;P2;SDS_P1;SDS_P2;PMS_P1;PMS_P2;Temp;Humidity;BMP_temperature;BMP_pressure;BME280_temperature;BME280_humidity;BME280_pressure;Samples;Min_cycle;Max_cycle;Signal;HPM_P1;HPM_P2
2020/12/30 12:46:50;;;;;;;8.27;3.13;;;;;;;18.37;61.50;99072.88;5114801;27;20387;-50
2020/12/30 12:49:16;;;;;;;6.75;2.97;;;;;;;18.55;60.14;99067.66;5094057;27;20036;-51
2020/12/30 12:51:45;;;;;;;6.03;2.95;;;;;;;18.73;60.59;99057.63;5090432;27;20119;-50
2020/12/30 12:54:11;;;;;;;5.28;3.05;;;;;;;18.73;59.76;99054.84;5088667;28;20013;-50
2020/12/30 12:56:36;;;;;;;6.68;3.35;;;;;;;18.90;59.33;99058.66;5084098;28;20414;-51
2020/12/30 12:59:02;;;;;;;5.47;2.85;;;;;;;19.05;59.70;99065.59;5072700;28;20028;-49
2020/12/30 13:01:27;;;;;;;4.85;2.72;;;;;;;19.13;58.95;99058.78;5086033;28;25864;-50
2020/12/30 13:03:54;;;;;;;7.22;2.92;;;;;;;19.16;59.51;99068.03;5083755;28;28349;-47
2020/12/30 13:06:32;;;;;;;6.80;3.10;;;;;;;19.22;58.90;99068.66;5079635;28;20040;-48
2020/12/30 13:08:57;;;;;;;5.50;2.88;;;;;;;19.23;59.33;99070.13;5079157;28;20059;-49
2020/12/30 13:11:23;;;;;;;7.13;2.83;;;;;;;19.30;58.57;99081.28;5078150;28;20098;-48
2020/12/30 13:13:49;;;;;;;8.00;3.10;;;;;;;19.40;59.10;99083.53;5078037;28;20104;-49
2020/12/30 13:16:14;;;;;;;4.93;2.70;;;;;;;19.31;58.83;99079.25;5082219;28;20029;-49
2020/12/30 13:18:40;;;;;;;7.53;2.75;;;;;;;19.17;58.60;99083.44;5079233;28;20025;-49
2020/12/30 13:21:05;;;;;;;6.30;3.20;;;;;;;19.13;59.41;99083.03;5080539;28;28186;-49
2020/12/30 13:23:31;;;;;;;4.60;2.78;;;;;;;19.18;58.88;99079.38;5082815;28;20105;-50
2020/12/30 13:26:01;;;;;;;4.95;2.75;;;;;;;19.20;58.58;99080.31;5083671;28;21065;-49
2020/12/30 13:28:27;;;;;;;7.88;3.10;;;;;;;19.19;58.51;99081.59;5085312;28;20029;-49
2020/12/30 13:30:52;;;;;;;4.72;2.70;;;;;;;19.16;59.36;99079.16;5081509;28;20053;-48
2020/12/30 13:33:18;;;;;;;5.25;3.05;;;;;;;19.17;59.45;99080.66;5094978;28;20028;-49
2020/12/30 13:35:51;;;;;;;6.05;2.97;;;;;;;19.20;59.32;99083.09;5082503;28;20025;-49
2020/12/30 13:38:16;;;;;;;4.93;3.00;;;;;;;19.19;59.40;99087.16;5081765;28;20108;-50
2020/12/30 13:40:42;;;;;;;6.63;3.17;;;;;;;19.20;58.86;99094.22;5084165;28;20025;-51
2020/12/30 13:43:07;;;;;;;7.05;3.10;;;;;;;19.20;59.03;99094.22;5083241;28;20040;-50
2020/12/30 13:45:35;;;;;;;5.75;2.65;;;;;;;19.19;59.12;99097.53;5084158;28;20066;-47
2020/12/30 13:48:03;;;;;;;5.03;2.72;;;;;;;19.20;58.69;99110.16;5068027;28;20492;-48
2020/12/30 13:50:28;;;;;;;4.45;2.72;;;;;;;19.20;59.52;99110.88;5063490;28;20115;-49
2020/12/30 13:52:54;;;;;;;5.28;3.00;;;;;;;19.18;59.65;99107.91;5081360;28;20403;-49
2020/12/30 13:55:19;;;;;;;6.75;3.05;;;;;;;19.22;58.75;99119.41;5083534;28;20039;-49
2020/12/30 13:57:45;;;;;;;7.20;3.65;;;;;;;19.18;58.78;99123.84;5073140;28;20029;-48
2020/12/30 14:00:11;;;;;;;5.30;3.40;;;;;;;19.21;58.70;99122.75;5067551;28;20471;-49
2020/12/30 14:02:36;;;;;;;6.50;4.05;;;;;;;19.22;58.69;99124.22;5068506;28;20036;-49
2020/12/30 14:05:03;;;;;;;6.70;4.13;;;;;;;19.20;60.12;99132.38;5065864;28;20483;-50
2020/12/30 14:07:29;;;;;;;9.07;4.93;;;;;;;19.26;59.55;99128.16;5068507;28;20023;-50
2020/12/30 14:09:54;;;;;;;9.73;4.97;;;;;;;19.24;59.35;99132.78;5067002;28;20546;-49
2020/12/30 14:12:20;;;;;;;9.43;5.53;;;;;;;19.26;59.30;99124.63;5067778;28;27476;-49
2020/12/30 14:14:45;;;;;;;9.13;6.20;;;;;;;19.25;59.21;99131.47;5069396;28;20537;-49
2020/12/30 14:17:11;;;;;;;11.05;6.13;;;;;;;19.25;59.19;99134.25;5065312;28;20729;-48
2020/12/30 14:19:36;;;;;;;11.95;6.65;;;;;;;19.25;59.30;99134.25;5066926;28;20025;-48
2020/12/30 14:22:04;;;;;;;11.32;6.85;;;;;;;19.25;59.19;99129.44;5065823;28;23376;-48
2020/12/30 14:24:29;;;;;;;12.60;6.90;;;;;;;19.27;59.22;99137.97;5071103;28;20051;-48
2020/12/30 14:26:58;;;;;;;11.50;6.63;;;;;;;19.28;59.51;99131.13;5069419;28;20048;-49
2020/12/30 14:29:24;;;;;;;12.85;8.07;;;;;;;19.29;58.98;99135.38;5067508;28;20140;-50
2020/12/30 14:31:50;;;;;;;13.60;8.18;;;;;;;19.29;59.82;99142.97;5067362;28;24819;-49
2020/12/30 14:34:15;;;;;;;16.27;8.85;;;;;;;19.31;59.82;99140.41;5070165;28;20044;-50
2020/12/30 14:36:43;;;;;;;13.40;8.00;;;;;;;19.30;60.29;99144.47;5064972;28;27805;-50
2020/12/30 14:39:09;;;;;;;10.95;7.28;;;;;;;19.30;58.87;99152.81;5071823;28;20029;-52
2020/12/30 14:41:35;;;;;;;13.80;7.80;;;;;;;19.31;59.00;99154.28;5066853;28;20051;-51
2020/12/30 14:44:00;;;;;;;13.18;7.32;;;;;;;19.30;59.38;99153.56;5070069;28;20060;-50
2020/12/30 14:46:33;;;;;;;11.32;7.30;;;;;;;19.31;59.32;99157.06;5068448;28;20531;-50
2020/12/30 14:48:58;;;;;;;13.18;7.60;;;;;;;19.28;60.04;99150.56;5044121;28;20034;-51
2020/12/30 14:51:24;;;;;;;11.48;7.10;;;;;;;19.30;59.72;99161.16;5064595;28;25344;-49
2020/12/30 14:53:50;;;;;;;11.52;7.00;;;;;;;19.29;59.89;99168.00;5067625;28;20396;-48
2020/12/30 14:56:16;;;;;;;10.48;7.15;;;;;;;19.29;59.13;99168.00;5069991;28;20025;-47
2020/12/30 14:58:42;;;;;;;11.50;7.03;;;;;;;19.30;59.57;99164.66;5069554;28;20029;-48
2020/12/30 15:01:14;;;;;;;10.63;7.10;;;;;;;19.31;59.77;99165.41;5072752;28;20025;-49
2020/12/30 15:03:40;;;;;;;11.25;6.85;;;;;;;19.32;59.35;99161.34;5068882;28;20500;-47
2020/12/30 15:06:07;;;;;;;9.85;6.38;;;;;;;19.31;59.99;99171.72;5069270;28;20032;-48
2020/12/30 15:08:32;;;;;;;9.27;5.95;;;;;;;19.39;59.38;99177.31;5059490;28;20028;-47
2020/12/30 15:10:58;;;;;;;9.38;6.43;;;;;;;19.53;59.33;99169.63;5060566;28;20029;-47
2020/12/30 15:13:23;;;;;;;9.35;6.00;;;;;;;19.60;59.32;99180.06;5061625;28;20677;-47
2020/12/30 15:15:49;;;;;;;8.88;5.85;;;;;;;19.65;59.29;99178.44;5065421;28;22360;-47
2020/12/30 15:18:14;;;;;;;8.27;5.55;;;;;;;19.70;59.75;99180.28;5068121;28;21636;-48
2020/12/30 15:20:39;;;;;;;7.72;5.20;;;;;;;19.74;60.16;99169.56;5064571;28;28766;-47
2020/12/30 15:23:05;;;;;;;8.32;5.53;;;;;;;19.77;60.12;99171.22;5068062;28;20915;-49
2020/12/30 15:25:30;;;;;;;7.97;4.97;;;;;;;19.76;59.99;99180.88;5062518;28;23176;-50
2020/12/30 15:27:55;;;;;;;8.45;5.28;;;;;;;19.80;60.68;99176.44;5066520;28;25736;-50
2020/12/30 15:30:21;;;;;;;7.78;4.78;;;;;;;19.84;60.43;99187.94;5068586;28;20025;-52
2020/12/30 15:32:46;;;;;;;12.13;5.53;;;;;;;19.88;61.30;99207.09;5065848;28;20025;-51
2020/12/30 15:35:12;;;;;;;7.95;5.35;;;;;;;19.94;61.73;99202.09;5064172;28;20033;-51
2020/12/30 15:37:37;;;;;;;8.25;5.00;;;;;;;20.04;61.63;99197.47;5067122;28;20502;-51
2020/12/30 15:40:02;;;;;;;6.75;4.28;;;;;;;19.98;61.96;99212.88;5066196;28;20881;-51
2020/12/30 15:42:28;;;;;;;7.80;4.80;;;;;;;19.99;61.54;99214.34;5065806;28;20115;-52
2020/12/30 15:44:53;;;;;;;8.60;5.22;;;;;;;19.99;61.14;99209.53;5066648;28;20064;-53
2020/12/30 15:47:21;;;;;;;6.05;4.63;;;;;;;19.99;61.43;99214.34;5064205;28;20025;-51
2020/12/30 15:49:46;;;;;;;6.65;4.65;;;;;;;20.00;61.89;99207.50;5064747;28;20028;-51
2020/12/30 15:52:12;;;;;;;6.68;4.65;;;;;;;20.01;62.07;99214.53;5066398;28;20036;-51
2020/12/30 15:54:38;;;;;;;6.50;4.30;;;;;;;20.03;62.03;99209.91;5064032;28;20910;-53
2020/12/30 15:57:03;;;;;;;8.88;4.60;;;;;;;20.00;62.24;99211.00;5062728;28;20033;-52
2020/12/30 15:59:28;;;;;;;6.82;4.60;;;;;;;20.02;62.12;99218.81;5066144;28;20388;-52
2020/12/30 16:01:54;;;;;;;7.40;4.50;;;;;;;20.03;62.53;99220.28;5071872;28;20025;-52
2020/12/30 16:04:22;;;;;;;6.28;4.15;;;;;;;20.01;61.75;99215.28;5072167;28;20095;-50
2020/12/30 16:06:50;;;;;;;6.05;4.13;;;;;;;20.01;61.86;99234.75;5066287;28;20068;-53
2020/12/30 16:09:16;;;;;;;7.20;4.25;;;;;;;20.02;62.29;99227.91;5063415;28;20033;-51
2020/12/30 16:11:45;;;;;;;7.03;3.72;;;;;;;20.04;62.45;99232.91;5065882;28;20021;-51
2020/12/30 16:14:11;;;;;;;6.05;3.92;;;;;;;20.05;62.10;99237.94;5067291;28;20052;-53
2020/12/30 16:16:36;;;;;;;5.68;4.13;;;;;;;20.06;61.94;99228.28;5066548;28;20476;-52
2020/12/30 16:19:02;;;;;;;6.95;4.43;;;;;;;20.08;62.09;99238.88;5064671;28;20034;-52
2020/12/30 16:21:29;;;;;;;6.57;4.22;;;;;;;20.07;61.87;99243.69;5061507;28;26553;-53
2020/12/30 16:23:56;;;;;;;5.05;3.60;;;;;;;20.07;62.88;99238.13;5065684;28;20032;-52
2020/12/30 16:26:21;;;;;;;5.38;4.03;;;;;;;20.10;62.05;99239.06;5065778;28;20816;-53
2020/12/30 16:28:46;;;;;;;5.88;3.88;;;;;;;20.10;62.84;99241.84;5064274;28;20025;-52
2020/12/30 16:31:12;;;;;;;5.07;4.03;;;;;;;20.13;62.50;99247.06;5066508;28;20078;-52
2020/12/30 16:33:37;;;;;;;6.28;4.30;;;;;;;20.13;62.76;99246.31;5068963;28;20067;-52
2020/12/30 16:36:03;;;;;;;6.20;4.22;;;;;;;20.16;62.26;99239.66;5067245;28;20032;-52
2020/12/30 16:38:28;;;;;;;5.95;3.83;;;;;;;20.19;61.92;99239.28;5064561;28;20484;-53
2020/12/30 16:40:54;;;;;;;5.50;3.90;;;;;;;20.22;62.32;99237.44;5064916;28;20633;-51
